Terminal Aerodrome Forecast
Issued by NWS

Current Version | Previous Version | Text Only | Print | Product List | Glossary On
Versions: 1 2 3 4 5 6 7 8 9 10 11 12 13 14 15 16 17 18 19
000
FTUS45 KRIW 211100
TAFLND
TAF
KLND 211121Z 2112/2212 26010KT P6SM SCT070 BKN100 WS020/26035KT
     FM220100 28012KT P6SM VCSH BKN070
     FM220800 29014G24KT P6SM SCT070=

USA.gov is the U.S. government's official web portal to all federal, state and local government web resources and services.